sensor_id;sensor_type;location;lat;lon;timestamp;pressure;altitude;pressure_sealevel;temperature;humidity
25430;BME280;13360;48.152;-1.788;2022-10-15T00:01:36;104293.44;;;18.21;100.00
25430;BME280;13360;48.152;-1.788;2022-10-15T00:04:02;104291.44;;;18.16;100.00
25430;BME280;13360;48.152;-1.788;2022-10-15T00:06:28;104287.28;;;18.19;100.00
25430;BME280;13360;48.152;-1.788;2022-10-15T00:08:53;104286.47;;;18.23;100.00
25430;BME280;13360;48.152;-1.788;2022-10-15T00:11:21;104279.72;;;18.19;100.00
25430;BME280;13360;48.152;-1.788;2022-10-15T00:13:47;104284.78;;;18.22;100.00
25430;BME280;13360;48.152;-1.788;2022-10-15T00:16:15;104264.31;;;18.17;100.00
25430;BME280;13360;48.152;-1.788;2022-10-15T00:18:41;104272.97;;;18.15;100.00
25430;BME280;13360;48.152;-1.788;2022-10-15T00:21:09;104282.22;;;18.16;100.00
25430;BME280;13360;48.152;-1.788;2022-10-15T00:23:35;104278.25;;;18.12;100.00
25430;BME280;13360;48.152;-1.788;2022-10-15T00:26:09;104281.28;;;18.10;100.00
25430;BME280;13360;48.152;-1.788;2022-10-15T00:28:35;104290.28;;;18.12;100.00
25430;BME280;13360;48.152;-1.788;2022-10-15T00:31:06;104311.03;;;18.16;100.00
25430;BME280;13360;48.152;-1.788;2022-10-15T00:33:31;104281.56;;;18.09;100.00
25430;BME280;13360;48.152;-1.788;2022-10-15T00:36:07;104291.91;;;18.08;100.00
25430;BME280;13360;48.152;-1.788;2022-10-15T00:38:33;104304.78;;;18.09;100.00
25430;BME280;13360;48.152;-1.788;2022-10-15T00:40:59;104315.72;;;18.11;100.00
25430;BME280;13360;48.152;-1.788;2022-10-15T00:43:39;104323.03;;;18.12;100.00
25430;BME280;13360;48.152;-1.788;2022-10-15T00:46:15;104325.56;;;18.13;100.00
25430;BME280;13360;48.152;-1.788;2022-10-15T00:48:41;104330.63;;;18.16;100.00
25430;BME280;13360;48.152;-1.788;2022-10-15T00:51:07;104326.13;;;18.15;100.00
25430;BME280;13360;48.152;-1.788;2022-10-15T00:53:32;104321.38;;;18.16;100.00
25430;BME280;13360;48.152;-1.788;2022-10-15T00:55:59;104326.72;;;18.17;100.00
25430;BME280;13360;48.152;-1.788;2022-10-15T00:58:27;104303.66;;;18.10;100.00
25430;BME280;13360;48.152;-1.788;2022-10-15T01:00:56;104326.72;;;18.17;100.00
25430;BME280;13360;48.152;-1.788;2022-10-15T01:03:22;104322.81;;;18.18;100.00
25430;BME280;13360;48.152;-1.788;2022-10-15T01:05:50;104316.09;;;18.19;100.00
25430;BME280;13360;48.152;-1.788;2022-10-15T01:08:16;104326.78;;;18.22;100.00
25430;BME280;13360;48.152;-1.788;2022-10-15T01:13:41;104307.72;;;18.19;100.00
25430;BME280;13360;48.152;-1.788;2022-10-15T01:19:49;104319.47;;;18.21;100.00
25430;BME280;13360;48.152;-1.788;2022-10-15T01:28:41;104303.75;;;18.15;100.00
25430;BME280;13360;48.152;-1.788;2022-10-15T01:34:06;104310.78;;;18.18;100.00
25430;BME280;13360;48.152;-1.788;2022-10-15T01:36:48;104307.13;;;18.17;100.00
25430;BME280;13360;48.152;-1.788;2022-10-15T01:39:27;104286.88;;;18.10;100.00
25430;BME280;13360;48.152;-1.788;2022-10-15T01:42:04;104271.22;;;18.09;100.00
25430;BME280;13360;48.152;-1.788;2022-10-15T01:44:35;104268.94;;;18.06;100.00
25430;BME280;13360;48.152;-1.788;2022-10-15T01:47:11;104270.63;;;18.07;100.00
25430;BME280;13360;48.152;-1.788;2022-10-15T01:49:41;104262.81;;;18.09;100.00
25430;BME280;13360;48.152;-1.788;2022-10-15T01:52:12;104240.38;;;18.04;100.00
25430;BME280;13360;48.152;-1.788;2022-10-15T01:54:39;104227.47;;;17.98;100.00
25430;BME280;13360;48.152;-1.788;2022-10-15T01:57:05;104208.41;;;17.95;100.00
25430;BME280;13360;48.152;-1.788;2022-10-15T01:59:33;104212.91;;;17.96;100.00
25430;BME280;13360;48.152;-1.788;2022-10-15T02:01:59;104210.16;;;18.01;100.00
25430;BME280;13360;48.152;-1.788;2022-10-15T02:04:29;104200.66;;;18.02;100.00
25430;BME280;13360;48.152;-1.788;2022-10-15T02:07:05;104180.47;;;18.00;100.00
25430;BME280;13360;48.152;-1.788;2022-10-15T02:09:41;104150.25;;;17.97;100.00
25430;BME280;13360;48.152;-1.788;2022-10-15T02:12:27;104137.41;;;18.01;100.00
25430;BME280;13360;48.152;-1.788;2022-10-15T02:15:17;104084.44;;;17.89;100.00
25430;BME280;13360;48.152;-1.788;2022-10-15T02:18:09;104085.66;;;17.98;100.00
25430;BME280;13360;48.152;-1.788;2022-10-15T02:20:56;104076.41;;;17.98;100.00
25430;BME280;13360;48.152;-1.788;2022-10-15T02:23:26;104048.16;;;17.94;100.00
25430;BME280;13360;48.152;-1.788;2022-10-15T02:25:54;104025.50;;;17.96;100.00
25430;BME280;13360;48.152;-1.788;2022-10-15T02:28:21;104012.09;;;17.98;100.00
25430;BME280;13360;48.152;-1.788;2022-10-15T02:30:49;103992.22;;;18.00;100.00
25430;BME280;13360;48.152;-1.788;2022-10-15T02:33:17;103946.56;;;17.89;100.00
25430;BME280;13360;48.152;-1.788;2022-10-15T02:35:46;103929.22;;;17.87;100.00
25430;BME280;13360;48.152;-1.788;2022-10-15T02:38:16;103911.38;;;17.93;100.00
25430;BME280;13360;48.152;-1.788;2022-10-15T02:40:43;103901.31;;;17.97;100.00
25430;BME280;13360;48.152;-1.788;2022-10-15T02:43:12;103875.31;;;17.96;100.00
25430;BME280;13360;48.152;-1.788;2022-10-15T02:45:38;103847.91;;;17.98;100.00
25430;BME280;13360;48.152;-1.788;2022-10-15T02:48:04;103839.50;;;17.98;100.00
25430;BME280;13360;48.152;-1.788;2022-10-15T02:50:29;103797.00;;;17.91;100.00
25430;BME280;13360;48.152;-1.788;2022-10-15T02:52:54;103763.66;;;17.85;100.00
25430;BME280;13360;48.152;-1.788;2022-10-15T02:55:20;103748.84;;;17.89;100.00
25430;BME280;13360;48.152;-1.788;2022-10-15T02:57:45;103734.31;;;17.87;100.00
25430;BME280;13360;48.152;-1.788;2022-10-15T03:00:11;103727.91;;;17.92;100.00
25430;BME280;13360;48.152;-1.788;2022-10-15T03:02:37;103703.88;;;17.96;100.00
25430;BME280;13360;48.152;-1.788;2022-10-15T03:05:02;103698.28;;;17.96;100.00
25430;BME280;13360;48.152;-1.788;2022-10-15T03:07:27;103676.19;;;17.94;100.00
25430;BME280;13360;48.152;-1.788;2022-10-15T03:09:53;103654.09;;;17.93;100.00
25430;BME280;13360;48.152;-1.788;2022-10-15T03:12:18;103648.50;;;17.98;100.00
25430;BME280;13360;48.152;-1.788;2022-10-15T03:14:47;103609.88;;;17.85;100.00
25430;BME280;13360;48.152;-1.788;2022-10-15T03:17:13;103605.69;;;17.87;100.00
25430;BME280;13360;48.152;-1.788;2022-10-15T03:19:38;103602.59;;;17.89;100.00
25430;BME280;13360;48.152;-1.788;2022-10-15T03:22:03;103578.56;;;17.88;100.00
25430;BME280;13360;48.152;-1.788;2022-10-15T03:24:29;103568.22;;;17.88;100.00
25430;BME280;13360;48.152;-1.788;2022-10-15T03:26:54;103557.03;;;17.83;100.00
25430;BME280;13360;48.152;-1.788;2022-10-15T03:29:19;103552.56;;;17.82;100.00
25430;BME280;13360;48.152;-1.788;2022-10-15T03:31:45;103539.69;;;17.81;100.00
25430;BME280;13360;48.152;-1.788;2022-10-15T03:34:10;103527.41;;;17.77;100.00
25430;BME280;13360;48.152;-1.788;2022-10-15T03:36:35;103516.22;;;17.72;100.00
25430;BME280;13360;48.152;-1.788;2022-10-15T03:39:01;103511.47;;;17.73;100.00
25430;BME280;13360;48.152;-1.788;2022-10-15T03:41:26;103508.09;;;17.71;100.00
25430;BME280;13360;48.152;-1.788;2022-10-15T03:43:51;103495.25;;;17.75;100.00
25430;BME280;13360;48.152;-1.788;2022-10-15T03:46:17;103485.47;;;17.77;100.00
25430;BME280;13360;48.152;-1.788;2022-10-15T03:48:42;103466.72;;;17.67;100.00
25430;BME280;13360;48.152;-1.788;2022-10-15T03:51:07;103463.91;;;17.57;100.00
25430;BME280;13360;48.152;-1.788;2022-10-15T03:53:33;103479.81;;;17.57;100.00
25430;BME280;13360;48.152;-1.788;2022-10-15T03:56:03;103489.03;;;17.62;100.00
25430;BME280;13360;48.152;-1.788;2022-10-15T03:58:29;103495.75;;;17.61;100.00
25430;BME280;13360;48.152;-1.788;2022-10-15T04:00:54;103488.50;;;17.60;100.00
25430;BME280;13360;48.152;-1.788;2022-10-15T04:03:20;103482.63;;;17.57;100.00
25430;BME280;13360;48.152;-1.788;2022-10-15T04:05:52;103479.25;;;17.60;100.00
25430;BME280;13360;48.152;-1.788;2022-10-15T04:08:18;103478.16;;;17.61;100.00
25430;BME280;13360;48.152;-1.788;2022-10-15T04:10:44;103478.44;;;17.59;100.00
25430;BME280;13360;48.152;-1.788;2022-10-15T04:13:09;103477.03;;;17.57;100.00
25430;BME280;13360;48.152;-1.788;2022-10-15T04:15:38;103479.00;;;17.56;100.00
25430;BME280;13360;48.152;-1.788;2022-10-15T04:18:03;103482.91;;;17.60;100.00
25430;BME280;13360;48.152;-1.788;2022-10-15T04:20:28;103491.28;;;17.65;100.00
25430;BME280;13360;48.152;-1.788;2022-10-15T04:22:55;103477.88;;;17.62;100.00
25430;BME280;13360;48.152;-1.788;2022-10-15T04:25:20;103471.44;;;17.57;100.00
25430;BME280;13360;48.152;-1.788;2022-10-15T04:27:46;103472.84;;;17.59;100.00
25430;BME280;13360;48.152;-1.788;2022-10-15T04:30:12;103474.22;;;17.62;100.00
25430;BME280;13360;48.152;-1.788;2022-10-15T04:32:37;103468.09;;;17.60;100.00
25430;BME280;13360;48.152;-1.788;2022-10-15T04:35:03;103477.03;;;17.62;100.00
25430;BME280;13360;48.152;-1.788;2022-10-15T04:37:32;103466.69;;;17.57;100.00
25430;BME280;13360;48.152;-1.788;2022-10-15T04:39:57;103473.97;;;17.58;100.00
25430;BME280;13360;48.152;-1.788;2022-10-15T04:42:22;103470.59;;;17.56;100.00
25430;BME280;13360;48.152;-1.788;2022-10-15T04:44:47;103472.28;;;17.57;100.00
25430;BME280;13360;48.152;-1.788;2022-10-15T04:47:13;103469.75;;;17.56;100.00
25430;BME280;13360;48.152;-1.788;2022-10-15T04:49:38;103456.06;;;17.54;100.00
25430;BME280;13360;48.152;-1.788;2022-10-15T04:52:04;103454.41;;;17.53;100.00
25430;BME280;13360;48.152;-1.788;2022-10-15T04:54:29;103439.28;;;17.44;100.00
25430;BME280;13360;48.152;-1.788;2022-10-15T04:56:54;103421.97;;;17.37;100.00
25430;BME280;13360;48.152;-1.788;2022-10-15T04:59:19;103434.81;;;17.33;100.00
25430;BME280;13360;48.152;-1.788;2022-10-15T05:01:45;103438.44;;;17.33;100.00
25430;BME280;13360;48.152;-1.788;2022-10-15T05:04:10;103440.41;;;17.33;100.00
25430;BME280;13360;48.152;-1.788;2022-10-15T05:06:36;103441.81;;;17.30;100.00
25430;BME280;13360;48.152;-1.788;2022-10-15T05:09:02;103441.50;;;17.27;100.00
25430;BME280;13360;48.152;-1.788;2022-10-15T05:11:27;103435.06;;;17.26;100.00
25430;BME280;13360;48.152;-1.788;2022-10-15T05:13:55;103442.59;;;17.26;100.00
25430;BME280;13360;48.152;-1.788;2022-10-15T05:16:26;103433.13;;;17.17;100.00
25430;BME280;13360;48.152;-1.788;2022-10-15T05:18:55;103425.84;;;17.16;100.00
25430;BME280;13360;48.152;-1.788;2022-10-15T05:21:21;103431.16;;;17.17;100.00
25430;BME280;13360;48.152;-1.788;2022-10-15T05:23:47;103431.44;;;17.16;100.00
25430;BME280;13360;48.152;-1.788;2022-10-15T05:26:16;103442.31;;;17.22;100.00
25430;BME280;13360;48.152;-1.788;2022-10-15T05:28:42;103437.84;;;17.21;100.00
25430;BME280;13360;48.152;-1.788;2022-10-15T05:31:13;103430.88;;;17.19;100.00
25430;BME280;13360;48.152;-1.788;2022-10-15T05:33:38;103423.88;;;17.11;100.00
25430;BME280;13360;48.152;-1.788;2022-10-15T05:36:16;103428.09;;;17.09;100.00
25430;BME280;13360;48.152;-1.788;2022-10-15T05:38:50;103445.41;;;17.21;100.00
25430;BME280;13360;48.152;-1.788;2022-10-15T05:41:16;103438.13;;;17.20;100.00
25430;BME280;13360;48.152;-1.788;2022-10-15T05:43:41;103445.41;;;17.26;100.00
25430;BME280;13360;48.152;-1.788;2022-10-15T05:46:07;103417.47;;;17.21;100.00
25430;BME280;13360;48.152;-1.788;2022-10-15T05:48:33;103397.91;;;17.11;100.00
25430;BME280;13360;48.152;-1.788;2022-10-15T05:51:06;103389.25;;;17.12;100.00
25430;BME280;13360;48.152;-1.788;2022-10-15T05:53:32;103368.28;;;17.04;100.00
25430;BME280;13360;48.152;-1.788;2022-10-15T05:55:58;103340.94;;;16.91;100.00
25430;BME280;13360;48.152;-1.788;2022-10-15T05:58:25;103338.41;;;16.95;100.00
25430;BME280;13360;48.152;-1.788;2022-10-15T06:00:55;103333.94;;;16.99;100.00
25430;BME280;13360;48.152;-1.788;2022-10-15T06:03:21;103325.84;;;17.02;100.00
25430;BME280;13360;48.152;-1.788;2022-10-15T06:05:46;103306.31;;;16.97;100.00
25430;BME280;13360;48.152;-1.788;2022-10-15T06:08:11;103304.63;;;17.01;100.00
25430;BME280;13360;48.152;-1.788;2022-10-15T06:10:37;103294.56;;;17.05;100.00
25430;BME280;13360;48.152;-1.788;2022-10-15T06:13:03;103288.69;;;17.07;100.00
25430;BME280;13360;48.152;-1.788;2022-10-15T06:15:29;103278.66;;;17.01;100.00
25430;BME280;13360;48.152;-1.788;2022-10-15T06:17:55;103284.81;;;17.08;100.00
25430;BME280;13360;48.152;-1.788;2022-10-15T06:20:20;103269.16;;;17.07;100.00
25430;BME280;13360;48.152;-1.788;2022-10-15T06:22:45;103237.34;;;16.98;100.00
25430;BME280;13360;48.152;-1.788;2022-10-15T06:25:11;103214.44;;;16.96;100.00
25430;BME280;13360;48.152;-1.788;2022-10-15T06:27:36;103184.59;;;16.96;100.00
25430;BME280;13360;48.152;-1.788;2022-10-15T06:30:02;103174.81;;;16.99;100.00
25430;BME280;13360;48.152;-1.788;2022-10-15T06:32:27;103169.22;;;16.99;100.00
25430;BME280;13360;48.152;-1.788;2022-10-15T06:34:53;103155.28;;;16.94;100.00
25430;BME280;13360;48.152;-1.788;2022-10-15T06:37:18;103133.78;;;16.94;100.00
25430;BME280;13360;48.152;-1.788;2022-10-15T06:39:43;103115.34;;;16.93;100.00
25430;BME280;13360;48.152;-1.788;2022-10-15T06:42:10;103082.97;;;16.92;100.00
25430;BME280;13360;48.152;-1.788;2022-10-15T06:44:36;103072.34;;;16.94;100.00
25430;BME280;13360;48.152;-1.788;2022-10-15T06:47:01;103068.44;;;16.95;100.00
25430;BME280;13360;48.152;-1.788;2022-10-15T06:49:27;103050.84;;;16.95;100.00
25430;BME280;13360;48.152;-1.788;2022-10-15T06:51:52;103037.19;;;16.93;100.00
25430;BME280;13360;48.152;-1.788;2022-10-15T06:54:17;103021.56;;;16.92;100.00
25430;BME280;13360;48.152;-1.788;2022-10-15T06:56:43;103003.44;;;16.90;100.00
25430;BME280;13360;48.152;-1.788;2022-10-15T06:59:08;102998.69;;;16.90;100.00
25430;BME280;13360;48.152;-1.788;2022-10-15T07:01:33;102998.13;;;16.88;100.00
25430;BME280;13360;48.152;-1.788;2022-10-15T07:03:59;102978.88;;;16.87;100.00
25430;BME280;13360;48.152;-1.788;2022-10-15T07:06:24;102960.44;;;16.86;100.00
25430;BME280;13360;48.152;-1.788;2022-10-15T07:08:49;102957.66;;;16.86;100.00
25430;BME280;13360;48.152;-1.788;2022-10-15T07:11:15;102939.50;;;16.83;100.00
25430;BME280;13360;48.152;-1.788;2022-10-15T07:13:40;102926.97;;;16.81;100.00
25430;BME280;13360;48.152;-1.788;2022-10-15T07:16:09;102911.63;;;16.78;100.00
25430;BME280;13360;48.152;-1.788;2022-10-15T07:18:35;102906.06;;;16.78;100.00
25430;BME280;13360;48.152;-1.788;2022-10-15T07:21:02;102889.63;;;16.71;100.00
25430;BME280;13360;48.152;-1.788;2022-10-15T07:23:27;102877.63;;;16.71;100.00
25430;BME280;13360;48.152;-1.788;2022-10-15T07:25:53;102854.22;;;16.67;100.00
25430;BME280;13360;48.152;-1.788;2022-10-15T07:28:19;102851.69;;;16.60;100.00
25430;BME280;13360;48.152;-1.788;2022-10-15T07:30:44;102835.00;;;16.55;100.00
25430;BME280;13360;48.152;-1.788;2022-10-15T07:33:09;102851.41;;;16.62;100.00
25430;BME280;13360;48.152;-1.788;2022-10-15T07:35:36;102858.09;;;16.66;100.00
25430;BME280;13360;48.152;-1.788;2022-10-15T07:38:01;102857.00;;;16.67;100.00
25430;BME280;13360;48.152;-1.788;2022-10-15T07:40:27;102845.53;;;16.63;100.00
25430;BME280;13360;48.152;-1.788;2022-10-15T07:42:56;102821.84;;;16.61;100.00
25430;BME280;13360;48.152;-1.788;2022-10-15T07:45:23;102789.50;;;16.55;100.00
25430;BME280;13360;48.152;-1.788;2022-10-15T07:47:49;102790.34;;;16.55;100.00
25430;BME280;13360;48.152;-1.788;2022-10-15T07:50:14;102780.84;;;16.56;100.00
25430;BME280;13360;48.152;-1.788;2022-10-15T07:52:40;102769.44;;;16.53;100.00
25430;BME280;13360;48.152;-1.788;2022-10-15T07:55:06;102791.47;;;16.54;100.00
25430;BME280;13360;48.152;-1.788;2022-10-15T07:57:31;102789.50;;;16.55;100.00
25430;BME280;13360;48.152;-1.788;2022-10-15T07:59:56;102808.75;;;16.56;100.00
25430;BME280;13360;48.152;-1.788;2022-10-15T08:02:22;102760.81;;;16.49;100.00
25430;BME280;13360;48.152;-1.788;2022-10-15T08:04:47;102761.38;;;16.51;100.00
25430;BME280;13360;48.152;-1.788;2022-10-15T08:07:12;102782.56;;;16.52;100.00
25430;BME280;13360;48.152;-1.788;2022-10-15T08:09:38;102799.25;;;16.57;100.00
25430;BME280;13360;48.152;-1.788;2022-10-15T08:12:04;102789.44;;;16.65;100.00
25430;BME280;13360;48.152;-1.788;2022-10-15T08:14:34;102787.47;;;16.65;100.00
25430;BME280;13360;48.152;-1.788;2022-10-15T08:17:01;102785.84;;;16.69;100.00
25430;BME280;13360;48.152;-1.788;2022-10-15T08:19:27;102792.50;;;16.73;100.00
25430;BME280;13360;48.152;-1.788;2022-10-15T08:21:52;102804.16;;;16.81;100.00
25430;BME280;13360;48.152;-1.788;2022-10-15T08:24:18;102807.19;;;16.89;100.00
25430;BME280;13360;48.152;-1.788;2022-10-15T08:26:43;102811.63;;;16.95;100.00
25430;BME280;13360;48.152;-1.788;2022-10-15T08:29:09;102809.38;;;16.97;100.00
25430;BME280;13360;48.152;-1.788;2022-10-15T08:31:35;102821.91;;;17.00;100.00
25430;BME280;13360;48.152;-1.788;2022-10-15T08:34:01;102816.56;;;17.03;100.00
25430;BME280;13360;48.152;-1.788;2022-10-15T08:36:26;102827.97;;;17.12;100.00
25430;BME280;13360;48.152;-1.788;2022-10-15T08:38:52;102832.88;;;17.25;100.00
25430;BME280;13360;48.152;-1.788;2022-10-15T08:41:44;102841.38;;;17.49;100.00
25430;BME280;13360;48.152;-1.788;2022-10-15T08:44:24;102821.75;;;17.54;100.00
25430;BME280;13360;48.152;-1.788;2022-10-15T08:47:30;102807.38;;;17.71;100.00
25430;BME280;13360;48.152;-1.788;2022-10-15T08:49:59;102787.38;;;17.83;100.00
25430;BME280;13360;48.152;-1.788;2022-10-15T08:54:59;102725.81;;;17.88;100.00
25430;BME280;13360;48.152;-1.788;2022-10-15T09:00:34;102663.94;;;17.76;100.00
25430;BME280;13360;48.152;-1.788;2022-10-15T09:06:34;102633.72;;;17.78;100.00
25430;BME280;13360;48.152;-1.788;2022-10-15T09:12:45;102576.56;;;17.65;100.00
25430;BME280;13360;48.152;-1.788;2022-10-15T09:15:16;102587.13;;;17.73;100.00
25430;BME280;13360;48.152;-1.788;2022-10-15T09:17:45;102606.38;;;17.75;100.00
25430;BME280;13360;48.152;-1.788;2022-10-15T09:20:18;102587.44;;;17.66;100.00
25430;BME280;13360;48.152;-1.788;2022-10-15T09:22:49;102590.97;;;17.77;100.00
25430;BME280;13360;48.152;-1.788;2022-10-15T09:25:23;102579.25;;;17.75;100.00
25430;BME280;13360;48.152;-1.788;2022-10-15T09:27:49;102591.19;;;17.81;100.00
25430;BME280;13360;48.152;-1.788;2022-10-15T09:30:26;102596.78;;;17.81;100.00
25430;BME280;13360;48.152;-1.788;2022-10-15T09:33:17;102584.53;;;17.77;100.00
25430;BME280;13360;48.152;-1.788;2022-10-15T09:35:52;102599.56;;;17.81;100.00
25430;BME280;13360;48.152;-1.788;2022-10-15T09:43:29;102602.91;;;17.83;100.00
25430;BME280;13360;48.152;-1.788;2022-10-15T09:45:59;102580.63;;;17.78;100.00
25430;BME280;13360;48.152;-1.788;2022-10-15T09:48:25;102534.94;;;17.63;100.00
25430;BME280;13360;48.152;-1.788;2022-10-15T09:51:01;102528.84;;;17.61;100.00
25430;BME280;13360;48.152;-1.788;2022-10-15T09:53:51;102577.00;;;17.77;100.00
25430;BME280;13360;48.152;-1.788;2022-10-15T09:56:22;102580.00;;;17.81;100.00
25430;BME280;13360;48.152;-1.788;2022-10-15T09:58:51;102593.06;;;17.85;100.00
25430;BME280;13360;48.152;-1.788;2022-10-15T10:01:29;102563.84;;;17.78;100.00
25430;BME280;13360;48.152;-1.788;2022-10-15T10:04:13;102574.94;;;17.83;100.00
25430;BME280;13360;48.152;-1.788;2022-10-15T10:06:52;102558.34;;;17.73;100.00
25430;BME280;13360;48.152;-1.788;2022-10-15T10:09:30;102551.00;;;17.77;100.00
25430;BME280;13360;48.152;-1.788;2022-10-15T10:11:59;102531.44;;;17.77;100.00
25430;BME280;13360;48.152;-1.788;2022-10-15T10:14:31;102536.34;;;17.85;100.00
25430;BME280;13360;48.152;-1.788;2022-10-15T10:17:13;102568.69;;;17.91;100.00
25430;BME280;13360;48.152;-1.788;2022-10-15T10:19:40;102561.38;;;17.95;100.00
25430;BME280;13360;48.152;-1.788;2022-10-15T10:22:19;102585.31;;;18.01;100.00
25430;BME280;13360;48.152;-1.788;2022-10-15T10:24:46;102604.19;;;18.09;100.00
25430;BME280;13360;48.152;-1.788;2022-10-15T10:27:38;102643.72;;;18.21;100.00
25430;BME280;13360;48.152;-1.788;2022-10-15T10:30:12;102621.34;;;18.21;100.00
25430;BME280;13360;48.152;-1.788;2022-10-15T10:32:38;102612.88;;;18.26;100.00
25430;BME280;13360;48.152;-1.788;2022-10-15T10:35:04;102613.72;;;18.27;100.00
25430;BME280;13360;48.152;-1.788;2022-10-15T10:37:40;102621.75;;;18.34;100.00
25430;BME280;13360;48.152;-1.788;2022-10-15T10:42:45;102647.56;;;18.44;100.00
25430;BME280;13360;48.152;-1.788;2022-10-15T10:45:22;102641.06;;;18.49;100.00
25430;BME280;13360;48.152;-1.788;2022-10-15T10:47:48;102595.97;;;18.50;100.00
25430;BME280;13360;48.152;-1.788;2022-10-15T10:50:27;102533.56;;;18.36;100.00
25430;BME280;13360;48.152;-1.788;2022-10-15T10:52:52;102551.59;;;18.44;100.00
25430;BME280;13360;48.152;-1.788;2022-10-15T10:55:20;102584.03;;;18.45;100.00
25430;BME280;13360;48.152;-1.788;2022-10-15T10:57:49;102607.84;;;18.61;100.00
25430;BME280;13360;48.152;-1.788;2022-10-15T11:00:35;102587.09;;;18.62;100.00
25430;BME280;13360;48.152;-1.788;2022-10-15T11:03:03;102596.16;;;18.73;100.00
25430;BME280;13360;48.152;-1.788;2022-10-15T11:05:30;102608.66;;;18.80;100.00
25430;BME280;13360;48.152;-1.788;2022-10-15T11:10:53;102533.66;;;18.64;100.00
25430;BME280;13360;48.152;-1.788;2022-10-15T11:19:10;102469.53;;;18.48;100.00
25430;BME280;13360;48.152;-1.788;2022-10-15T11:24:16;102457.78;;;18.65;100.00
25430;BME280;13360;48.152;-1.788;2022-10-15T11:27:03;102442.53;;;18.71;100.00
25430;BME280;13360;48.152;-1.788;2022-10-15T11:29:41;102450.34;;;18.74;100.00
25430;BME280;13360;48.152;-1.788;2022-10-15T11:32:31;102476.63;;;18.73;100.00
25430;BME280;13360;48.152;-1.788;2022-10-15T11:38:26;102458.50;;;18.71;100.00
25430;BME280;13360;48.152;-1.788;2022-10-15T11:44:29;102428.44;;;18.63;100.00
25430;BME280;13360;48.152;-1.788;2022-10-15T11:47:00;102399.09;;;18.60;100.00
25430;BME280;13360;48.152;-1.788;2022-10-15T11:55:16;102422.09;;;18.57;100.00
25430;BME280;13360;48.152;-1.788;2022-10-15T11:57:44;102441.00;;;18.65;100.00
25430;BME280;13360;48.152;-1.788;2022-10-15T12:02:53;102320.03;;;18.54;100.00
25430;BME280;13360;48.152;-1.788;2022-10-15T12:05:36;102296.28;;;18.52;100.00
25430;BME280;13360;48.152;-1.788;2022-10-15T12:08:03;102255.94;;;18.53;100.00
25430;BME280;13360;48.152;-1.788;2022-10-15T12:13:15;102225.81;;;18.50;100.00
25430;BME280;13360;48.152;-1.788;2022-10-15T12:15:55;102192.22;;;18.50;100.00
25430;BME280;13360;48.152;-1.788;2022-10-15T12:18:36;102191.59;;;18.53;100.00
25430;BME280;13360;48.152;-1.788;2022-10-15T12:21:02;102233.66;;;18.62;100.00
25430;BME280;13360;48.152;-1.788;2022-10-15T12:28:49;102165.41;;;18.63;100.00
25430;BME280;13360;48.152;-1.788;2022-10-15T12:31:15;102102.72;;;18.50;100.00
25430;BME280;13360;48.152;-1.788;2022-10-15T12:33:49;102105.91;;;18.57;100.00
25430;BME280;13360;48.152;-1.788;2022-10-15T12:41:41;102170.91;;;18.54;100.00
25430;BME280;13360;48.152;-1.788;2022-10-15T12:46:43;102086.31;;;18.57;100.00
25430;BME280;13360;48.152;-1.788;2022-10-15T12:51:59;102053.69;;;18.52;100.00
25430;BME280;13360;48.152;-1.788;2022-10-15T12:54:37;102078.44;;;18.59;100.00
25430;BME280;13360;48.152;-1.788;2022-10-15T13:00:38;101996.13;;;18.60;100.00
25430;BME280;13360;48.152;-1.788;2022-10-15T13:05:34;101903.81;;;18.60;100.00
25430;BME280;13360;48.152;-1.788;2022-10-15T13:08:02;101833.03;;;18.59;100.00
25430;BME280;13360;48.152;-1.788;2022-10-15T13:10:31;101817.06;;;18.60;100.00
25430;BME280;13360;48.152;-1.788;2022-10-15T13:13:02;101806.25;;;18.67;100.00
25430;BME280;13360;48.152;-1.788;2022-10-15T13:15:29;101745.88;;;18.75;100.00
25430;BME280;13360;48.152;-1.788;2022-10-15T13:17:58;101697.97;;;18.76;100.00
25430;BME280;13360;48.152;-1.788;2022-10-15T13:20:36;101714.41;;;18.78;100.00
25430;BME280;13360;48.152;-1.788;2022-10-15T13:23:29;101650.03;;;18.61;100.00
25430;BME280;13360;48.152;-1.788;2022-10-15T13:26:11;101610.84;;;18.52;100.00
25430;BME280;13360;48.152;-1.788;2022-10-15T13:28:38;101613.31;;;18.53;100.00
25430;BME280;13360;48.152;-1.788;2022-10-15T13:31:12;101539.75;;;18.44;100.00
25430;BME280;13360;48.152;-1.788;2022-10-15T13:33:44;101539.59;;;18.49;100.00
25430;BME280;13360;48.152;-1.788;2022-10-15T13:36:23;101570.22;;;18.54;100.00
25430;BME280;13360;48.152;-1.788;2022-10-15T13:39:06;101584.69;;;18.48;100.00
25430;BME280;13360;48.152;-1.788;2022-10-15T13:41:35;101543.88;;;18.47;100.00
25430;BME280;13360;48.152;-1.788;2022-10-15T13:44:01;101533.31;;;18.52;100.00
25430;BME280;13360;48.152;-1.788;2022-10-15T13:46:30;101515.72;;;18.52;100.00
25430;BME280;13360;48.152;-1.788;2022-10-15T13:48:58;101523.47;;;18.55;100.00
25430;BME280;13360;48.152;-1.788;2022-10-15T13:51:34;101483.31;;;18.51;100.00
25430;BME280;13360;48.152;-1.788;2022-10-15T13:54:08;101496.47;;;18.59;100.00
25430;BME280;13360;48.152;-1.788;2022-10-15T13:56:34;101468.84;;;18.49;100.00
25430;BME280;13360;48.152;-1.788;2022-10-15T13:59:00;101444.66;;;18.44;100.00
25430;BME280;13360;48.152;-1.788;2022-10-15T14:01:28;101495.16;;;18.48;100.00
25430;BME280;13360;48.152;-1.788;2022-10-15T14:04:01;101485.47;;;18.45;100.00
25430;BME280;13360;48.152;-1.788;2022-10-15T14:06:29;101438.22;;;18.52;100.00
25430;BME280;13360;48.152;-1.788;2022-10-15T14:08:58;101425.06;;;18.53;100.00